sensor_id;sensor_type;location;lat;lon;timestamp;P1;durP1;ratioP1;P2;durP2;ratioP2
23745;SDS011;12053;48.878;9.632;2024-02-23T00:02:20;1.73;;;0.40;;
23745;SDS011;12053;48.878;9.632;2024-02-23T00:04:47;0.20;;;0.20;;
23745;SDS011;12053;48.878;9.632;2024-02-23T00:07:14;0.90;;;0.30;;
23745;SDS011;12053;48.878;9.632;2024-02-23T00:09:41;0.20;;;0.20;;
23745;SDS011;12053;48.878;9.632;2024-02-23T00:12:09;0.90;;;0.30;;
23745;SDS011;12053;48.878;9.632;2024-02-23T00:14:36;0.40;;;0.40;;
23745;SDS011;12053;48.878;9.632;2024-02-23T00:17:04;1.00;;;0.70;;
23745;SDS011;12053;48.878;9.632;2024-02-23T00:19:31;0.20;;;0.20;;
23745;SDS011;12053;48.878;9.632;2024-02-23T00:21:59;0.77;;;0.50;;
23745;SDS011;12053;48.878;9.632;2024-02-23T00:24:26;0.20;;;0.20;;
23745;SDS011;12053;48.878;9.632;2024-02-23T00:26:54;1.40;;;0.30;;
23745;SDS011;12053;48.878;9.632;2024-02-23T00:29:21;1.10;;;0.40;;
23745;SDS011;12053;48.878;9.632;2024-02-23T00:31:49;1.23;;;0.50;;
23745;SDS011;12053;48.878;9.632;2024-02-23T00:34:16;2.10;;;0.55;;
23745;SDS011;12053;48.878;9.632;2024-02-23T00:36:43;0.90;;;0.30;;
23745;SDS011;12053;48.878;9.632;2024-02-23T00:39:11;0.70;;;0.22;;
23745;SDS011;12053;48.878;9.632;2024-02-23T00:41:38;0.85;;;0.40;;
23745;SDS011;12053;48.878;9.632;2024-02-23T00:44:06;1.80;;;0.40;;
23745;SDS011;12053;48.878;9.632;2024-02-23T00:46:33;0.65;;;0.40;;
23745;SDS011;12053;48.878;9.632;2024-02-23T00:49:00;1.35;;;0.50;;
23745;SDS011;12053;48.878;9.632;2024-02-23T00:51:28;0.95;;;0.45;;
23745;SDS011;12053;48.878;9.632;2024-02-23T00:53:56;0.50;;;0.40;;
23745;SDS011;12053;48.878;9.632;2024-02-23T00:56:23;1.00;;;0.47;;
23745;SDS011;12053;48.878;9.632;2024-02-23T00:59:01;0.30;;;0.30;;
23745;SDS011;12053;48.878;9.632;2024-02-23T01:01:28;0.43;;;0.30;;
23745;SDS011;12053;48.878;9.632;2024-02-23T01:03:56;1.55;;;0.40;;
23745;SDS011;12053;48.878;9.632;2024-02-23T01:06:23;0.57;;;0.40;;
23745;SDS011;12053;48.878;9.632;2024-02-23T01:08:51;1.85;;;0.30;;
23745;SDS011;12053;48.878;9.632;2024-02-23T01:11:18;0.60;;;0.38;;
23745;SDS011;12053;48.878;9.632;2024-02-23T01:13:45;3.97;;;0.40;;
23745;SDS011;12053;48.878;9.632;2024-02-23T01:16:13;1.48;;;0.60;;
23745;SDS011;12053;48.878;9.632;2024-02-23T01:18:40;2.83;;;0.85;;
23745;SDS011;12053;48.878;9.632;2024-02-23T01:21:07;1.05;;;0.50;;
23745;SDS011;12053;48.878;9.632;2024-02-23T01:23:35;1.45;;;0.60;;
23745;SDS011;12053;48.878;9.632;2024-02-23T01:26:02;1.35;;;0.73;;
23745;SDS011;12053;48.878;9.632;2024-02-23T01:28:29;3.58;;;0.60;;
23745;SDS011;12053;48.878;9.632;2024-02-23T01:30:57;2.95;;;0.70;;
23745;SDS011;12053;48.878;9.632;2024-02-23T01:33:24;1.73;;;0.63;;
23745;SDS011;12053;48.878;9.632;2024-02-23T01:35:51;0.75;;;0.47;;
23745;SDS011;12053;48.878;9.632;2024-02-23T01:38:18;4.75;;;0.60;;
23745;SDS011;12053;48.878;9.632;2024-02-23T01:40:47;2.53;;;0.70;;
23745;SDS011;12053;48.878;9.632;2024-02-23T01:43:14;2.55;;;0.70;;
23745;SDS011;12053;48.878;9.632;2024-02-23T01:45:41;0.85;;;0.40;;
23745;SDS011;12053;48.878;9.632;2024-02-23T01:48:09;0.50;;;0.43;;
23745;SDS011;12053;48.878;9.632;2024-02-23T01:50:36;1.90;;;0.50;;
23745;SDS011;12053;48.878;9.632;2024-02-23T01:53:04;1.45;;;0.50;;
23745;SDS011;12053;48.878;9.632;2024-02-23T01:55:32;0.90;;;0.40;;
23745;SDS011;12053;48.878;9.632;2024-02-23T01:58:02;2.20;;;0.52;;
23745;SDS011;12053;48.878;9.632;2024-02-23T02:00:34;0.43;;;0.43;;
23745;SDS011;12053;48.878;9.632;2024-02-23T02:03:02;2.67;;;0.60;;
23745;SDS011;12053;48.878;9.632;2024-02-23T02:05:29;1.98;;;0.50;;
23745;SDS011;12053;48.878;9.632;2024-02-23T02:07:56;3.03;;;0.90;;
23745;SDS011;12053;48.878;9.632;2024-02-23T02:10:27;0.98;;;0.50;;
23745;SDS011;12053;48.878;9.632;2024-02-23T02:12:55;2.47;;;0.50;;
23745;SDS011;12053;48.878;9.632;2024-02-23T02:15:22;2.55;;;0.50;;
23745;SDS011;12053;48.878;9.632;2024-02-23T02:17:49;5.00;;;0.85;;
23745;SDS011;12053;48.878;9.632;2024-02-23T02:20:16;2.35;;;0.60;;
23745;SDS011;12053;48.878;9.632;2024-02-23T02:22:45;1.75;;;0.40;;
23745;SDS011;12053;48.878;9.632;2024-02-23T02:25:13;0.93;;;0.30;;
23745;SDS011;12053;48.878;9.632;2024-02-23T02:27:43;0.40;;;0.40;;
23745;SDS011;12053;48.878;9.632;2024-02-23T02:30:12;1.15;;;0.30;;
23745;SDS011;12053;48.878;9.632;2024-02-23T02:32:39;0.50;;;0.32;;
23745;SDS011;12053;48.878;9.632;2024-02-23T02:35:07;3.28;;;0.60;;
23745;SDS011;12053;48.878;9.632;2024-02-23T02:37:34;0.30;;;0.30;;
23745;SDS011;12053;48.878;9.632;2024-02-23T02:40:02;0.75;;;0.57;;
23745;SDS011;12053;48.878;9.632;2024-02-23T02:42:29;2.53;;;0.57;;
23745;SDS011;12053;48.878;9.632;2024-02-23T02:44:57;1.67;;;0.43;;
23745;SDS011;12053;48.878;9.632;2024-02-23T02:47:24;1.55;;;0.60;;
23745;SDS011;12053;48.878;9.632;2024-02-23T02:49:52;1.55;;;0.40;;
23745;SDS011;12053;48.878;9.632;2024-02-23T02:52:19;3.20;;;0.63;;
23745;SDS011;12053;48.878;9.632;2024-02-23T02:54:49;3.00;;;0.80;;
23745;SDS011;12053;48.878;9.632;2024-02-23T02:57:16;3.03;;;0.60;;
23745;SDS011;12053;48.878;9.632;2024-02-23T02:59:43;3.03;;;0.70;;
23745;SDS011;12053;48.878;9.632;2024-02-23T03:02:12;3.17;;;0.70;;
23745;SDS011;12053;48.878;9.632;2024-02-23T03:04:46;1.85;;;0.70;;
23745;SDS011;12053;48.878;9.632;2024-02-23T03:07:13;1.88;;;0.70;;
23745;SDS011;12053;48.878;9.632;2024-02-23T03:09:40;0.85;;;0.60;;
23745;SDS011;12053;48.878;9.632;2024-02-23T03:12:08;2.90;;;0.82;;
23745;SDS011;12053;48.878;9.632;2024-02-23T03:14:35;4.25;;;1.00;;
23745;SDS011;12053;48.878;9.632;2024-02-23T03:17:07;3.77;;;0.60;;
23745;SDS011;12053;48.878;9.632;2024-02-23T03:19:36;4.38;;;0.70;;
23745;SDS011;12053;48.878;9.632;2024-02-23T03:22:03;1.35;;;0.65;;
23745;SDS011;12053;48.878;9.632;2024-02-23T03:24:31;3.67;;;0.75;;
23745;SDS011;12053;48.878;9.632;2024-02-23T03:26:58;3.70;;;0.40;;
23745;SDS011;12053;48.878;9.632;2024-02-23T03:29:26;4.10;;;0.82;;
23745;SDS011;12053;48.878;9.632;2024-02-23T03:31:56;4.90;;;0.70;;
23745;SDS011;12053;48.878;9.632;2024-02-23T03:34:24;4.75;;;0.88;;
23745;SDS011;12053;48.878;9.632;2024-02-23T03:36:52;3.08;;;1.00;;
23745;SDS011;12053;48.878;9.632;2024-02-23T03:39:19;2.97;;;0.82;;
23745;SDS011;12053;48.878;9.632;2024-02-23T03:41:46;2.50;;;0.68;;
23745;SDS011;12053;48.878;9.632;2024-02-23T03:44:13;1.65;;;0.50;;
23745;SDS011;12053;48.878;9.632;2024-02-23T03:46:40;2.20;;;0.50;;
23745;SDS011;12053;48.878;9.632;2024-02-23T03:49:08;3.17;;;0.68;;
23745;SDS011;12053;48.878;9.632;2024-02-23T03:51:35;4.13;;;1.00;;
23745;SDS011;12053;48.878;9.632;2024-02-23T03:54:05;1.15;;;0.68;;
23745;SDS011;12053;48.878;9.632;2024-02-23T03:56:42;2.90;;;0.90;;
23745;SDS011;12053;48.878;9.632;2024-02-23T03:59:09;2.80;;;0.88;;
23745;SDS011;12053;48.878;9.632;2024-02-23T04:01:37;1.27;;;0.50;;
23745;SDS011;12053;48.878;9.632;2024-02-23T04:04:05;2.25;;;0.60;;
23745;SDS011;12053;48.878;9.632;2024-02-23T04:06:35;4.07;;;0.70;;
23745;SDS011;12053;48.878;9.632;2024-02-23T04:09:03;3.65;;;0.70;;
23745;SDS011;12053;48.878;9.632;2024-02-23T04:11:34;1.10;;;0.60;;
23745;SDS011;12053;48.878;9.632;2024-02-23T04:14:02;3.50;;;0.90;;
23745;SDS011;12053;48.878;9.632;2024-02-23T04:16:31;2.30;;;0.70;;
23745;SDS011;12053;48.878;9.632;2024-02-23T04:18:58;1.98;;;0.90;;
23745;SDS011;12053;48.878;9.632;2024-02-23T04:21:26;2.17;;;0.60;;
23745;SDS011;12053;48.878;9.632;2024-02-23T04:23:53;1.30;;;0.70;;
23745;SDS011;12053;48.878;9.632;2024-02-23T04:26:20;3.65;;;0.77;;
23745;SDS011;12053;48.878;9.632;2024-02-23T04:28:48;3.42;;;1.00;;
23745;SDS011;12053;48.878;9.632;2024-02-23T04:31:15;3.78;;;1.10;;
23745;SDS011;12053;48.878;9.632;2024-02-23T04:33:42;5.38;;;1.20;;
23745;SDS011;12053;48.878;9.632;2024-02-23T04:36:09;2.08;;;0.70;;
23745;SDS011;12053;48.878;9.632;2024-02-23T04:38:36;5.10;;;2.08;;
23745;SDS011;12053;48.878;9.632;2024-02-23T04:41:04;3.38;;;0.80;;
23745;SDS011;12053;48.878;9.632;2024-02-23T04:43:32;3.17;;;0.70;;
23745;SDS011;12053;48.878;9.632;2024-02-23T04:45:59;3.65;;;1.00;;
23745;SDS011;12053;48.878;9.632;2024-02-23T04:48:26;1.70;;;0.80;;
23745;SDS011;12053;48.878;9.632;2024-02-23T04:50:53;2.35;;;0.70;;
23745;SDS011;12053;48.878;9.632;2024-02-23T04:53:21;3.63;;;0.75;;
23745;SDS011;12053;48.878;9.632;2024-02-23T04:55:48;3.33;;;0.60;;
23745;SDS011;12053;48.878;9.632;2024-02-23T04:58:15;3.40;;;0.90;;
23745;SDS011;12053;48.878;9.632;2024-02-23T05:00:42;2.58;;;0.60;;
23745;SDS011;12053;48.878;9.632;2024-02-23T05:03:09;2.78;;;0.70;;
23745;SDS011;12053;48.878;9.632;2024-02-23T05:05:38;3.38;;;0.80;;
23745;SDS011;12053;48.878;9.632;2024-02-23T05:08:06;2.13;;;0.80;;
23745;SDS011;12053;48.878;9.632;2024-02-23T05:10:34;2.60;;;0.77;;
23745;SDS011;12053;48.878;9.632;2024-02-23T05:13:01;1.40;;;0.88;;
23745;SDS011;12053;48.878;9.632;2024-02-23T05:15:28;4.13;;;1.00;;
23745;SDS011;12053;48.878;9.632;2024-02-23T05:17:56;4.22;;;1.10;;
23745;SDS011;12053;48.878;9.632;2024-02-23T05:20:23;2.80;;;0.80;;
23745;SDS011;12053;48.878;9.632;2024-02-23T05:22:51;1.10;;;0.60;;
23745;SDS011;12053;48.878;9.632;2024-02-23T05:25:18;3.95;;;0.80;;
23745;SDS011;12053;48.878;9.632;2024-02-23T05:27:45;1.33;;;0.70;;
23745;SDS011;12053;48.878;9.632;2024-02-23T05:30:13;1.90;;;0.80;;
23745;SDS011;12053;48.878;9.632;2024-02-23T05:32:40;2.33;;;0.88;;
23745;SDS011;12053;48.878;9.632;2024-02-23T05:35:07;2.90;;;0.80;;
23745;SDS011;12053;48.878;9.632;2024-02-23T05:37:35;2.72;;;1.00;;
23745;SDS011;12053;48.878;9.632;2024-02-23T05:40:03;1.83;;;0.90;;
23745;SDS011;12053;48.878;9.632;2024-02-23T05:42:36;4.65;;;1.10;;
23745;SDS011;12053;48.878;9.632;2024-02-23T05:45:06;4.32;;;1.23;;
23745;SDS011;12053;48.878;9.632;2024-02-23T05:47:40;4.35;;;1.20;;
23745;SDS011;12053;48.878;9.632;2024-02-23T05:50:13;2.25;;;1.00;;
23745;SDS011;12053;48.878;9.632;2024-02-23T05:52:40;3.00;;;1.08;;
23745;SDS011;12053;48.878;9.632;2024-02-23T05:55:08;1.83;;;0.88;;
23745;SDS011;12053;48.878;9.632;2024-02-23T05:57:35;1.60;;;1.02;;
23745;SDS011;12053;48.878;9.632;2024-02-23T06:00:03;4.13;;;1.00;;
23745;SDS011;12053;48.878;9.632;2024-02-23T06:02:30;3.72;;;1.50;;
23745;SDS011;12053;48.878;9.632;2024-02-23T06:04:57;4.03;;;1.30;;
23745;SDS011;12053;48.878;9.632;2024-02-23T06:07:25;2.22;;;0.88;;
23745;SDS011;12053;48.878;9.632;2024-02-23T06:09:55;3.75;;;1.00;;
23745;SDS011;12053;48.878;9.632;2024-02-23T06:12:23;1.92;;;0.98;;
23745;SDS011;12053;48.878;9.632;2024-02-23T06:14:51;2.33;;;0.68;;
23745;SDS011;12053;48.878;9.632;2024-02-23T06:17:18;3.22;;;1.30;;
23745;SDS011;12053;48.878;9.632;2024-02-23T06:19:45;5.20;;;1.60;;
23745;SDS011;12053;48.878;9.632;2024-02-23T06:22:13;14.15;;;5.45;;
23745;SDS011;12053;48.878;9.632;2024-02-23T06:24:43;13.27;;;5.15;;
23745;SDS011;12053;48.878;9.632;2024-02-23T06:27:10;7.57;;;3.33;;
23745;SDS011;12053;48.878;9.632;2024-02-23T06:29:37;7.07;;;1.90;;
23745;SDS011;12053;48.878;9.632;2024-02-23T06:32:04;2.92;;;1.10;;
23745;SDS011;12053;48.878;9.632;2024-02-23T06:34:32;7.70;;;3.00;;
23745;SDS011;12053;48.878;9.632;2024-02-23T06:36:59;9.27;;;3.10;;
23745;SDS011;12053;48.878;9.632;2024-02-23T06:39:26;8.40;;;2.63;;
23745;SDS011;12053;48.878;9.632;2024-02-23T06:41:54;6.07;;;2.50;;
23745;SDS011;12053;48.878;9.632;2024-02-23T06:44:21;3.58;;;2.40;;
23745;SDS011;12053;48.878;9.632;2024-02-23T06:46:48;3.03;;;1.67;;
23745;SDS011;12053;48.878;9.632;2024-02-23T06:49:15;2.83;;;1.33;;
23745;SDS011;12053;48.878;9.632;2024-02-23T06:51:43;2.97;;;0.80;;
23745;SDS011;12053;48.878;9.632;2024-02-23T06:54:10;1.20;;;0.70;;
23745;SDS011;12053;48.878;9.632;2024-02-23T06:56:37;3.08;;;0.70;;
23745;SDS011;12053;48.878;9.632;2024-02-23T06:59:04;0.63;;;0.63;;
23745;SDS011;12053;48.878;9.632;2024-02-23T07:01:32;5.07;;;0.90;;
23745;SDS011;12053;48.878;9.632;2024-02-23T07:04:05;1.90;;;1.23;;
23745;SDS011;12053;48.878;9.632;2024-02-23T07:06:32;2.47;;;0.90;;
23745;SDS011;12053;48.878;9.632;2024-02-23T07:09:01;4.03;;;1.40;;
23745;SDS011;12053;48.878;9.632;2024-02-23T07:11:29;8.95;;;4.20;;
23745;SDS011;12053;48.878;9.632;2024-02-23T07:13:57;10.48;;;4.00;;
23745;SDS011;12053;48.878;9.632;2024-02-23T07:16:24;7.13;;;2.35;;
23745;SDS011;12053;48.878;9.632;2024-02-23T07:18:51;5.25;;;1.90;;
23745;SDS011;12053;48.878;9.632;2024-02-23T07:21:18;7.45;;;2.20;;
23745;SDS011;12053;48.878;9.632;2024-02-23T07:23:46;6.13;;;2.30;;
23745;SDS011;12053;48.878;9.632;2024-02-23T07:26:13;3.90;;;2.00;;
23745;SDS011;12053;48.878;9.632;2024-02-23T07:28:40;2.75;;;1.48;;
23745;SDS011;12053;48.878;9.632;2024-02-23T07:31:07;3.17;;;1.55;;
23745;SDS011;12053;48.878;9.632;2024-02-23T07:33:37;1.77;;;1.20;;
23745;SDS011;12053;48.878;9.632;2024-02-23T07:36:05;4.28;;;1.30;;
23745;SDS011;12053;48.878;9.632;2024-02-23T07:38:32;1.33;;;0.73;;
23745;SDS011;12053;48.878;9.632;2024-02-23T07:40:59;2.13;;;1.00;;
23745;SDS011;12053;48.878;9.632;2024-02-23T07:43:26;2.20;;;1.20;;
23745;SDS011;12053;48.878;9.632;2024-02-23T07:45:55;4.60;;;1.10;;
23745;SDS011;12053;48.878;9.632;2024-02-23T07:48:22;5.25;;;1.10;;
23745;SDS011;12053;48.878;9.632;2024-02-23T07:50:50;3.63;;;1.30;;
23745;SDS011;12053;48.878;9.632;2024-02-23T07:53:17;1.38;;;0.80;;
23745;SDS011;12053;48.878;9.632;2024-02-23T07:55:44;3.25;;;1.20;;
23745;SDS011;12053;48.878;9.632;2024-02-23T07:58:11;5.88;;;1.63;;
23745;SDS011;12053;48.878;9.632;2024-02-23T08:00:38;4.97;;;1.83;;
23745;SDS011;12053;48.878;9.632;2024-02-23T08:03:06;4.45;;;1.35;;
23745;SDS011;12053;48.878;9.632;2024-02-23T08:05:34;3.70;;;1.20;;
23745;SDS011;12053;48.878;9.632;2024-02-23T08:08:02;1.00;;;0.90;;
23745;SDS011;12053;48.878;9.632;2024-02-23T08:10:29;3.75;;;0.90;;
23745;SDS011;12053;48.878;9.632;2024-02-23T08:12:56;3.28;;;0.88;;
23745;SDS011;12053;48.878;9.632;2024-02-23T08:15:23;0.75;;;0.60;;
23745;SDS011;12053;48.878;9.632;2024-02-23T08:17:50;2.20;;;1.17;;
23745;SDS011;12053;48.878;9.632;2024-02-23T08:20:18;2.40;;;1.17;;
23745;SDS011;12053;48.878;9.632;2024-02-23T08:22:45;2.00;;;0.95;;
23745;SDS011;12053;48.878;9.632;2024-02-23T08:25:13;1.98;;;0.80;;
23745;SDS011;12053;48.878;9.632;2024-02-23T08:27:41;2.95;;;1.08;;
23745;SDS011;12053;48.878;9.632;2024-02-23T08:30:09;4.03;;;0.88;;
23745;SDS011;12053;48.878;9.632;2024-02-23T08:32:37;1.45;;;0.90;;
23745;SDS011;12053;48.878;9.632;2024-02-23T08:35:04;2.65;;;1.70;;
23745;SDS011;12053;48.878;9.632;2024-02-23T08:37:32;3.85;;;1.70;;
23745;SDS011;12053;48.878;9.632;2024-02-23T08:39:59;3.10;;;1.38;;
23745;SDS011;12053;48.878;9.632;2024-02-23T08:42:27;3.67;;;1.50;;
23745;SDS011;12053;48.878;9.632;2024-02-23T08:44:54;5.32;;;1.40;;
23745;SDS011;12053;48.878;9.632;2024-02-23T08:47:22;1.23;;;1.05;;
23745;SDS011;12053;48.878;9.632;2024-02-23T08:49:49;4.88;;;1.30;;
23745;SDS011;12053;48.878;9.632;2024-02-23T08:52:16;3.63;;;1.33;;
23745;SDS011;12053;48.878;9.632;2024-02-23T08:54:43;4.60;;;1.20;;
23745;SDS011;12053;48.878;9.632;2024-02-23T08:57:11;4.28;;;1.02;;
23745;SDS011;12053;48.878;9.632;2024-02-23T08:59:38;3.05;;;1.65;;
23745;SDS011;12053;48.878;9.632;2024-02-23T09:02:05;2.25;;;1.30;;
23745;SDS011;12053;48.878;9.632;2024-02-23T09:04:32;4.50;;;1.10;;
23745;SDS011;12053;48.878;9.632;2024-02-23T09:06:59;4.40;;;1.20;;
23745;SDS011;12053;48.878;9.632;2024-02-23T09:09:27;2.97;;;1.38;;
23745;SDS011;12053;48.878;9.632;2024-02-23T09:11:54;2.97;;;1.90;;
23745;SDS011;12053;48.878;9.632;2024-02-23T09:14:21;2.70;;;1.08;;
23745;SDS011;12053;48.878;9.632;2024-02-23T09:16:48;4.03;;;1.20;;
23745;SDS011;12053;48.878;9.632;2024-02-23T09:19:17;4.93;;;1.10;;
23745;SDS011;12053;48.878;9.632;2024-02-23T09:21:44;4.22;;;1.45;;
23745;SDS011;12053;48.878;9.632;2024-02-23T09:24:12;5.18;;;1.17;;
23745;SDS011;12053;48.878;9.632;2024-02-23T09:26:39;4.85;;;1.00;;
23745;SDS011;12053;48.878;9.632;2024-02-23T09:29:06;3.92;;;1.20;;
23745;SDS011;12053;48.878;9.632;2024-02-23T09:31:34;3.15;;;1.15;;
23745;SDS011;12053;48.878;9.632;2024-02-23T09:34:01;3.15;;;1.20;;
23745;SDS011;12053;48.878;9.632;2024-02-23T09:36:29;1.38;;;1.00;;
23745;SDS011;12053;48.878;9.632;2024-02-23T09:38:56;4.82;;;1.35;;
23745;SDS011;12053;48.878;9.632;2024-02-23T09:41:23;4.43;;;1.25;;
23745;SDS011;12053;48.878;9.632;2024-02-23T09:43:51;5.30;;;1.23;;
23745;SDS011;12053;48.878;9.632;2024-02-23T09:46:19;6.53;;;1.48;;
23745;SDS011;12053;48.878;9.632;2024-02-23T09:48:47;3.45;;;0.85;;
23745;SDS011;12053;48.878;9.632;2024-02-23T09:51:15;5.45;;;1.40;;
23745;SDS011;12053;48.878;9.632;2024-02-23T09:53:43;2.20;;;1.27;;
23745;SDS011;12053;48.878;9.632;2024-02-23T09:56:11;8.43;;;2.70;;
23745;SDS011;12053;48.878;9.632;2024-02-23T09:58:39;2.45;;;1.05;;
23745;SDS011;12053;48.878;9.632;2024-02-23T10:01:06;7.00;;;1.48;;
23745;SDS011;12053;48.878;9.632;2024-02-23T10:03:33;5.15;;;1.73;;
23745;SDS011;12053;48.878;9.632;2024-02-23T10:06:00;10.38;;;4.00;;
23745;SDS011;12053;48.878;9.632;2024-02-23T10:08:28;6.65;;;2.30;;
23745;SDS011;12053;48.878;9.632;2024-02-23T10:10:55;5.20;;;2.42;;
23745;SDS011;12053;48.878;9.632;2024-02-23T10:13:23;5.43;;;1.30;;
23745;SDS011;12053;48.878;9.632;2024-02-23T10:15:50;5.38;;;1.75;;
23745;SDS011;12053;48.878;9.632;2024-02-23T10:18:38;5.43;;;2.63;;
23745;SDS011;12053;48.878;9.632;2024-02-23T10:21:05;3.28;;;1.30;;
23745;SDS011;12053;48.878;9.632;2024-02-23T10:23:33;4.13;;;1.40;;
23745;SDS011;12053;48.878;9.632;2024-02-23T10:26:07;3.75;;;1.20;;
23745;SDS011;12053;48.878;9.632;2024-02-23T10:28:37;2.88;;;1.67;;
23745;SDS011;12053;48.878;9.632;2024-02-23T10:31:07;3.25;;;1.50;;
23745;SDS011;12053;48.878;9.632;2024-02-23T10:33:38;2.15;;;1.13;;
23745;SDS011;12053;48.878;9.632;2024-02-23T10:36:07;3.08;;;1.25;;
23745;SDS011;12053;48.878;9.632;2024-02-23T10:38:35;2.30;;;0.75;;
23745;SDS011;12053;48.878;9.632;2024-02-23T10:41:04;3.90;;;0.93;;
23745;SDS011;12053;48.878;9.632;2024-02-23T10:43:33;2.97;;;1.10;;
23745;SDS011;12053;48.878;9.632;2024-02-23T10:46:03;5.47;;;1.20;;
23745;SDS011;12053;48.878;9.632;2024-02-23T10:48:34;3.90;;;0.90;;
23745;SDS011;12053;48.878;9.632;2024-02-23T10:51:02;4.22;;;1.10;;
23745;SDS011;12053;48.878;9.632;2024-02-23T10:53:31;5.53;;;1.88;;
23745;SDS011;12053;48.878;9.632;2024-02-23T10:55:59;6.22;;;1.27;;
23745;SDS011;12053;48.878;9.632;2024-02-23T10:58:27;4.75;;;1.25;;
23745;SDS011;12053;48.878;9.632;2024-02-23T11:00:57;3.00;;;1.00;;
23745;SDS011;12053;48.878;9.632;2024-02-23T11:03:29;4.50;;;1.25;;
23745;SDS011;12053;48.878;9.632;2024-02-23T11:05:57;3.75;;;1.33;;
23745;SDS011;12053;48.878;9.632;2024-02-23T11:08:29;2.30;;;1.13;;
23745;SDS011;12053;48.878;9.632;2024-02-23T11:11:06;3.67;;;1.27;;
23745;SDS011;12053;48.878;9.632;2024-02-23T11:13:34;3.92;;;1.40;;
23745;SDS011;12053;48.878;9.632;2024-02-23T11:16:02;5.80;;;1.80;;
23745;SDS011;12053;48.878;9.632;2024-02-23T11:18:30;4.00;;;1.48;;
23745;SDS011;12053;48.878;9.632;2024-02-23T11:21:01;6.32;;;4.47;;
23745;SDS011;12053;48.878;9.632;2024-02-23T11:23:41;6.88;;;1.92;;
23745;SDS011;12053;48.878;9.632;2024-02-23T11:26:12;5.35;;;1.50;;
23745;SDS011;12053;48.878;9.632;2024-02-23T11:28:52;6.30;;;1.33;;
23745;SDS011;12053;48.878;9.632;2024-02-23T11:31:23;3.72;;;1.20;;
23745;SDS011;12053;48.878;9.632;2024-02-23T11:33:53;4.07;;;1.20;;
23745;SDS011;12053;48.878;9.632;2024-02-23T11:36:27;2.70;;;1.00;;
23745;SDS011;12053;48.878;9.632;2024-02-23T11:38:56;2.95;;;1.00;;
23745;SDS011;12053;48.878;9.632;2024-02-23T11:41:24;5.53;;;1.30;;
23745;SDS011;12053;48.878;9.632;2024-02-23T11:43:52;7.32;;;1.30;;
23745;SDS011;12053;48.878;9.632;2024-02-23T11:46:19;4.32;;;1.40;;
23745;SDS011;12053;48.878;9.632;2024-02-23T11:48:47;3.75;;;0.93;;
23745;SDS011;12053;48.878;9.632;2024-02-23T11:51:20;7.32;;;1.77;;
23745;SDS011;12053;48.878;9.632;2024-02-23T11:53:47;3.03;;;1.30;;
23745;SDS011;12053;48.878;9.632;2024-02-23T11:56:15;5.60;;;1.90;;
23745;SDS011;12053;48.878;9.632;2024-02-23T11:58:43;6.13;;;1.58;;
23745;SDS011;12053;48.878;9.632;2024-02-23T12:01:11;6.18;;;1.65;;
23745;SDS011;12053;48.878;9.632;2024-02-23T12:03:38;2.25;;;0.93;;
23745;SDS011;12053;48.878;9.632;2024-02-23T12:06:06;2.10;;;1.20;;
23745;SDS011;12053;48.878;9.632;2024-02-23T12:08:33;5.53;;;1.70;;
23745;SDS011;12053;48.878;9.632;2024-02-23T12:11:05;5.45;;;1.10;;
23745;SDS011;12053;48.878;9.632;2024-02-23T12:13:35;1.67;;;1.00;;
23745;SDS011;12053;48.878;9.632;2024-02-23T12:16:02;8.27;;;1.00;;
23745;SDS011;12053;48.878;9.632;2024-02-23T12:18:32;4.63;;;1.00;;
23745;SDS011;12053;48.878;9.632;2024-02-23T12:21:08;0.93;;;0.70;;
23745;SDS011;12053;48.878;9.632;2024-02-23T12:23:42;3.65;;;0.90;;
23745;SDS011;12053;48.878;9.632;2024-02-23T12:26:10;3.67;;;0.95;;
23745;SDS011;12053;48.878;9.632;2024-02-23T12:28:40;4.85;;;0.80;;
23745;SDS011;12053;48.878;9.632;2024-02-23T12:31:07;2.03;;;0.98;;
23745;SDS011;12053;48.878;9.632;2024-02-23T12:33:36;3.85;;;1.27;;
23745;SDS011;12053;48.878;9.632;2024-02-23T12:36:07;4.28;;;0.95;;
23745;SDS011;12053;48.878;9.632;2024-02-23T12:38:35;3.03;;;1.15;;
23745;SDS011;12053;48.878;9.632;2024-02-23T12:41:02;6.72;;;1.25;;
23745;SDS011;12053;48.878;9.632;2024-02-23T12:43:30;4.88;;;1.48;;
23745;SDS011;12053;48.878;9.632;2024-02-23T12:45:58;4.93;;;1.20;;
23745;SDS011;12053;48.878;9.632;2024-02-23T12:48:25;4.32;;;1.35;;
23745;SDS011;12053;48.878;9.632;2024-02-23T12:50:52;2.95;;;1.20;;
23745;SDS011;12053;48.878;9.632;2024-02-23T12:56:03;6.97;;;1.70;;
23745;SDS011;12053;48.878;9.632;2024-02-23T12:58:31;4.47;;;1.13;;
23745;SDS011;12053;48.878;9.632;2024-02-23T13:00:58;3.17;;;0.90;;
23745;SDS011;12053;48.878;9.632;2024-02-23T13:03:26;4.97;;;0.90;;
23745;SDS011;12053;48.878;9.632;2024-02-23T13:05:53;4.15;;;1.27;;
23745;SDS011;12053;48.878;9.632;2024-02-23T13:08:22;3.47;;;0.90;;
23745;SDS011;12053;48.878;9.632;2024-02-23T13:10:52;4.32;;;1.02;;
23745;SDS011;12053;48.878;9.632;2024-02-23T13:13:20;3.20;;;0.82;;
23745;SDS011;12053;48.878;9.632;2024-02-23T13:15:48;7.93;;;1.67;;
23745;SDS011;12053;48.878;9.632;2024-02-23T13:18:16;2.42;;;1.10;;
23745;SDS011;12053;48.878;9.632;2024-02-23T13:20:44;5.10;;;1.13;;
23745;SDS011;12053;48.878;9.632;2024-02-23T13:23:12;6.47;;;1.73;;
23745;SDS011;12053;48.878;9.632;2024-02-23T13:25:53;5.15;;;1.33;;
23745;SDS011;12053;48.878;9.632;2024-02-23T13:28:25;5.40;;;1.33;;
23745;SDS011;12053;48.878;9.632;2024-02-23T13:30:53;4.22;;;1.23;;
23745;SDS011;12053;48.878;9.632;2024-02-23T13:33:20;4.97;;;1.27;;
23745;SDS011;12053;48.878;9.632;2024-02-23T13:35:50;4.40;;;1.15;;
23745;SDS011;12053;48.878;9.632;2024-02-23T13:38:17;4.60;;;1.00;;
23745;SDS011;12053;48.878;9.632;2024-02-23T13:40:45;4.82;;;1.20;;
23745;SDS011;12053;48.878;9.632;2024-02-23T13:43:12;3.65;;;0.93;;
23745;SDS011;12053;48.878;9.632;2024-02-23T13:45:49;3.72;;;1.20;;
23745;SDS011;12053;48.878;9.632;2024-02-23T13:48:18;1.65;;;1.00;;
23745;SDS011;12053;48.878;9.632;2024-02-23T13:50:46;5.40;;;1.13;;
23745;SDS011;12053;48.878;9.632;2024-02-23T13:53:13;7.47;;;1.17;;
23745;SDS011;12053;48.878;9.632;2024-02-23T13:55:41;4.57;;;1.40;;
23745;SDS011;12053;48.878;9.632;2024-02-23T13:58:10;4.07;;;1.10;;
23745;SDS011;12053;48.878;9.632;2024-02-23T14:00:38;6.28;;;1.38;;
23745;SDS011;12053;48.878;9.632;2024-02-23T14:03:06;3.60;;;1.02;;
23745;SDS011;12053;48.878;9.632;2024-02-23T14:05:33;6.32;;;1.20;;
23745;SDS011;12053;48.878;9.632;2024-02-23T14:08:02;6.47;;;1.95;;
23745;SDS011;12053;48.878;9.632;2024-02-23T14:10:34;4.75;;;2.22;;
23745;SDS011;12053;48.878;9.632;2024-02-23T14:13:01;7.35;;;1.50;;
23745;SDS011;12053;48.878;9.632;2024-02-23T14:15:29;4.97;;;1.35;;
23745;SDS011;12053;48.878;9.632;2024-02-23T14:17:56;6.97;;;1.58;;
23745;SDS011;12053;48.878;9.632;2024-02-23T14:20:24;4.18;;;1.35;;
23745;SDS011;12053;48.878;9.632;2024-02-23T14:22:51;7.68;;;1.73;;
23745;SDS011;12053;48.878;9.632;2024-02-23T14:25:20;8.35;;;1.67;;
23745;SDS011;12053;48.878;9.632;2024-02-23T14:27:48;7.45;;;1.40;;
23745;SDS011;12053;48.878;9.632;2024-02-23T14:30:15;5.50;;;1.13;;
23745;SDS011;12053;48.878;9.632;2024-02-23T14:32:43;6.13;;;1.30;;
23745;SDS011;12053;48.878;9.632;2024-02-23T14:35:10;5.35;;;1.30;;
23745;SDS011;12053;48.878;9.632;2024-02-23T14:37:38;4.25;;;1.05;;
23745;SDS011;12053;48.878;9.632;2024-02-23T14:40:09;8.20;;;1.77;;
23745;SDS011;12053;48.878;9.632;2024-02-23T14:42:37;5.65;;;1.52;;
23745;SDS011;12053;48.878;9.632;2024-02-23T14:45:07;6.10;;;1.27;;
23745;SDS011;12053;48.878;9.632;2024-02-23T14:47:35;3.15;;;0.77;;
23745;SDS011;12053;48.878;9.632;2024-02-23T14:50:11;4.65;;;1.20;;
23745;SDS011;12053;48.878;9.632;2024-02-23T14:52:39;7.00;;;1.80;;
23745;SDS011;12053;48.878;9.632;2024-02-23T14:55:07;6.10;;;1.13;;
23745;SDS011;12053;48.878;9.632;2024-02-23T14:57:37;5.18;;;1.38;;